createdAt,value
2019-02-20T00:01:48.648Z,7.9
2019-02-20T00:06:45.713Z,7.9
2019-02-20T00:11:42.471Z,7.8
2019-02-20T00:16:39.243Z,7.8
2019-02-20T00:21:35.961Z,7.7
2019-02-20T00:26:32.904Z,7.3
2019-02-20T00:31:29.382Z,7.7
2019-02-20T00:36:26.103Z,7.6
2019-02-20T00:41:23.123Z,7.5
2019-02-20T00:46:20.094Z,7.6
2019-02-20T00:51:17.217Z,7.5
2019-02-20T00:56:14.198Z,7.4
2019-02-20T01:01:10.933Z,7.7
2019-02-20T01:06:07.614Z,7.4
2019-02-20T01:11:04.556Z,7.8
2019-02-20T01:16:01.409Z,7.9
2019-02-20T01:20:58.332Z,7.8
2019-02-20T01:25:55.295Z,7.7
2019-02-20T01:30:52.125Z,7.7
2019-02-20T01:35:48.848Z,7.1
2019-02-20T01:40:45.761Z,7.5
2019-02-20T01:45:42.228Z,7.4
2019-02-20T01:50:38.852Z,7.4
2019-02-20T01:55:35.862Z,7.4
2019-02-20T02:00:32.851Z,7.4
2019-02-20T02:05:29.499Z,7.4
2019-02-20T02:10:26.443Z,7.3
2019-02-20T02:15:23.217Z,7.2
2019-02-20T02:20:20.326Z,7.2
2019-02-20T02:25:17.283Z,7.3
2019-02-20T02:30:14.269Z,7.2
2019-02-20T02:35:11.082Z,7.2
2019-02-20T02:40:08.182Z,6.9
2019-02-20T02:45:04.976Z,7.1
2019-02-20T02:50:01.954Z,7
2019-02-20T02:54:58.702Z,6.9
2019-02-20T02:59:55.391Z,6.8
2019-02-20T03:04:52.138Z,6.6
2019-02-20T03:09:49.189Z,6.8
2019-02-20T03:14:46.044Z,6.7
2019-02-20T03:19:42.932Z,6.6
2019-02-20T03:24:39.535Z,6.6
2019-02-20T03:29:36.583Z,6.5
2019-02-20T03:34:33.635Z,6
2019-02-20T03:39:30.654Z,6.5
2019-02-20T03:44:27.836Z,6.6
2019-02-20T03:49:24.834Z,6.5
2019-02-20T03:54:21.675Z,6.4
2019-02-20T03:59:18.562Z,6.4
2019-02-20T04:04:15.372Z,5.8
2019-02-20T04:09:12.235Z,5.7
2019-02-20T04:14:08.930Z,6.2
2019-02-20T04:19:05.910Z,6.2
2019-02-20T04:24:03.068Z,6.2
2019-02-20T04:28:59.486Z,6.3
2019-02-20T04:33:56.264Z,6.2
2019-02-20T04:38:52.957Z,6.2
2019-02-20T04:43:49.779Z,6.1
2019-02-20T04:48:46.516Z,5.9
2019-02-20T04:53:43.084Z,5.8
2019-02-20T04:58:39.882Z,5.7
2019-02-20T05:03:36.612Z,5.6
2019-02-20T05:08:34.024Z,5.7
2019-02-20T05:13:30.644Z,5.6
2019-02-20T05:18:27.544Z,5.6
2019-02-20T05:23:24.252Z,5.5
2019-02-20T05:28:21.182Z,5.4
2019-02-20T05:33:17.920Z,5.4
2019-02-20T05:38:14.639Z,5.4
2019-02-20T05:43:11.244Z,5.3
2019-02-20T05:48:07.970Z,5.4
2019-02-20T05:53:04.706Z,5.4
2019-02-20T05:58:01.518Z,5.4
2019-02-20T06:02:58.424Z,5.5
2019-02-20T06:07:55.415Z,5.6
2019-02-20T06:12:51.854Z,5.6
2019-02-20T06:17:49.013Z,5.6
2019-02-20T06:22:45.891Z,5.6
2019-02-20T06:27:42.807Z,5.7
2019-02-20T06:32:39.563Z,5.8
2019-02-20T06:37:36.300Z,5.8
2019-02-20T06:42:33.552Z,5.4
2019-02-20T06:47:30.286Z,5.7
2019-02-20T06:52:26.773Z,5.6
2019-02-20T06:57:23.676Z,5.6
2019-02-20T07:02:20.443Z,5.8
2019-02-20T07:07:17.556Z,5.8
2019-02-20T07:12:14.140Z,5.9
2019-02-20T07:17:10.995Z,5.9
2019-02-20T07:22:08.024Z,5.9
2019-02-20T07:27:04.773Z,6
2019-02-20T07:32:01.598Z,5.8
2019-02-20T07:36:58.358Z,6.1
2019-02-20T07:41:55.396Z,6.2
2019-02-20T07:46:52.400Z,6.3
2019-02-20T07:51:48.685Z,6.4
2019-02-20T07:56:45.451Z,6.4
2019-02-20T08:01:42.256Z,6.6
2019-02-20T08:06:39.202Z,6.7
2019-02-20T08:11:36.041Z,6.8
2019-02-20T08:16:33.069Z,6.6
2019-02-20T08:21:29.872Z,6.9
2019-02-20T08:26:26.845Z,7
2019-02-20T08:31:23.412Z,7
2019-02-20T08:36:20.510Z,7.1
2019-02-20T08:41:17.326Z,6.8
2019-02-20T08:46:14.147Z,7.4
2019-02-20T08:51:10.939Z,7.6
2019-02-20T08:56:07.986Z,6.1
2019-02-20T09:01:05.040Z,7.9
2019-02-20T09:06:02.013Z,7.5
2019-02-20T09:10:59.205Z,7.6
2019-02-20T09:15:55.917Z,7.8
2019-02-20T09:20:52.745Z,7.9
2019-02-20T09:25:49.651Z,8.1
2019-02-20T09:30:46.726Z,8.3
2019-02-20T09:35:43.768Z,8.4
2019-02-20T09:40:40.575Z,8.6
2019-02-20T09:45:41.824Z,9.3
2019-02-20T09:50:34.425Z,9.1
2019-02-20T09:55:31.240Z,9.3
2019-02-20T10:00:28.350Z,10.1
2019-02-20T10:05:25.614Z,10.4
2019-02-20T10:10:22.624Z,10.3
2019-02-20T10:15:19.975Z,10.6
2019-02-20T10:20:16.954Z,11
2019-02-20T10:25:14.298Z,11.8
2019-02-20T10:30:10.964Z,11.5
2019-02-20T10:35:08.081Z,11.9
2019-02-20T10:40:04.998Z,12.4
2019-02-20T10:45:00.830Z,12.5
2019-02-20T10:49:57.895Z,12.6
2019-02-20T10:54:57.683Z,12.8
2019-02-20T10:59:52.263Z,12.9
2019-02-20T11:04:50.144Z,12.6
2019-02-20T11:09:46.526Z,13
2019-02-20T11:14:43.603Z,13.1
2019-02-20T11:19:39.892Z,13.1
2019-02-20T11:24:36.000Z,13.2
2019-02-20T11:29:33.018Z,11.3
2019-02-20T11:34:30.124Z,13.4
2019-02-20T11:39:26.848Z,13.5
2019-02-20T11:44:23.989Z,13.7
2019-02-20T11:49:21.087Z,13.8
2019-02-20T11:54:18.146Z,14
2019-02-20T11:59:15.309Z,14.1
2019-02-20T12:04:12.632Z,14.2
2019-02-20T12:09:09.017Z,14.4
2019-02-20T12:14:06.070Z,11.8
2019-02-20T12:19:02.828Z,14.7
2019-02-20T12:23:59.797Z,14.9
2019-02-20T12:28:56.929Z,15.1
2019-02-20T12:33:54.000Z,15.1
2019-02-20T12:38:50.964Z,14.9
2019-02-20T12:43:48.162Z,14.8
2019-02-20T12:48:44.718Z,15.3
2019-02-20T12:53:43.573Z,15.3
2019-02-20T12:58:38.783Z,15.4
2019-02-20T13:03:35.850Z,15.5
2019-02-20T13:08:32.892Z,15.6
2019-02-20T13:13:30.013Z,15.6
2019-02-20T13:18:26.704Z,15.5
2019-02-20T13:23:23.658Z,15.6
2019-02-20T13:28:20.669Z,15.3
2019-02-20T13:33:17.576Z,15.5
2019-02-20T13:38:16.200Z,15.3
2019-02-20T13:43:11.149Z,15.4
2019-02-20T13:48:08.026Z,14.9
2019-02-20T13:53:05.325Z,15.3
2019-02-20T13:58:02.411Z,15.3
2019-02-20T14:02:59.405Z,15.2
2019-02-20T14:07:56.274Z,15.1
2019-02-20T14:12:53.351Z,14.5
2019-02-20T14:17:50.184Z,14.9
2019-02-20T14:22:47.188Z,14.8
2019-02-20T14:27:44.038Z,14.7
2019-02-20T14:32:41.307Z,14.5
2019-02-20T14:37:39.353Z,14.6
2019-02-20T14:42:36.302Z,14.5
2019-02-20T14:47:31.904Z,14.5
2019-02-20T14:52:28.949Z,14.4
2019-02-20T14:57:25.799Z,14.1
2019-02-20T15:02:19.125Z,14.2
2019-02-20T15:07:16.072Z,14.1
2019-02-20T15:12:12.943Z,14
2019-02-20T15:17:09.956Z,13.4
2019-02-20T15:22:07.046Z,13.8
2019-02-20T15:27:03.938Z,13.7
2019-02-20T15:32:00.897Z,13.6
2019-02-20T15:36:57.687Z,13.5
2019-02-20T15:41:54.683Z,13.4
2019-02-20T15:46:51.514Z,13.4
2019-02-20T15:51:48.575Z,13.3
2019-02-20T15:56:45.671Z,13.2
2019-02-20T16:01:42.583Z,13.2
2019-02-20T16:06:39.390Z,13.1
2019-02-20T16:11:36.553Z,13
2019-02-20T16:16:33.310Z,13
2019-02-20T16:21:30.478Z,12.9
2019-02-20T16:26:27.285Z,11.4
2019-02-20T16:31:24.301Z,12.8
2019-02-20T16:36:20.978Z,12.7
2019-02-20T16:41:17.909Z,12.7
2019-02-20T16:46:16.697Z,12.6
2019-02-20T16:51:11.465Z,12.5
2019-02-20T16:56:08.319Z,12.5
2019-02-20T17:01:05.037Z,12.4
2019-02-20T17:06:01.766Z,12.4
2019-02-20T17:10:58.673Z,12.3
2019-02-20T17:15:55.086Z,12.3
2019-02-20T17:20:51.817Z,12.2
2019-02-20T17:25:48.668Z,12.2
2019-02-20T17:30:45.518Z,12.2
2019-02-20T17:35:42.611Z,12.1
2019-02-20T17:40:39.258Z,11.6
2019-02-20T17:45:35.963Z,11.5
2019-02-20T17:50:33.201Z,11.4
2019-02-20T17:55:29.987Z,11.9
2019-02-20T18:00:26.311Z,11.3
2019-02-20T18:05:23.934Z,11.8
2019-02-20T18:10:20.281Z,11.3
2019-02-20T18:15:17.129Z,11.3
2019-02-20T18:20:13.972Z,11.7
2019-02-20T18:25:10.682Z,11.1
2019-02-20T18:30:07.625Z,11.1
2019-02-20T18:35:04.263Z,11.1
2019-02-20T18:40:01.338Z,11.1
2019-02-20T18:44:57.972Z,11
2019-02-20T18:49:54.995Z,10.9
2019-02-20T18:54:51.741Z,10.7
2019-02-20T18:59:48.760Z,11.3
2019-02-20T19:04:45.519Z,10.7
2019-02-20T19:09:42.413Z,10.7
2019-02-20T19:14:39.309Z,10.6
2019-02-20T19:19:36.166Z,10.6
2019-02-20T19:24:32.975Z,10.5
2019-02-20T19:29:29.947Z,10.5
2019-02-20T19:34:27.033Z,10.4
2019-02-20T19:39:24.198Z,10.4
2019-02-20T19:44:20.747Z,10.4
2019-02-20T19:49:17.834Z,10.8
2019-02-20T19:54:14.690Z,10.2
2019-02-20T19:59:11.729Z,10.7
2019-02-20T20:04:08.549Z,10.2
2019-02-20T20:09:05.462Z,10.1
2019-02-20T20:14:02.356Z,10.6
2019-02-20T20:18:58.906Z,10.1
2019-02-20T20:23:55.750Z,9.9
2019-02-20T20:28:52.915Z,10.5
2019-02-20T20:33:49.693Z,10
2019-02-20T20:38:46.967Z,10.2
2019-02-20T20:43:43.666Z,10.4
2019-02-20T20:48:37.340Z,10.3
2019-02-20T20:53:34.288Z,9.8
2019-02-20T20:58:31.089Z,9.8
2019-02-20T21:03:28.218Z,9.8
2019-02-20T21:08:25.360Z,10.2
2019-02-20T21:18:19.011Z,9.8
2019-02-20T21:23:15.903Z,9.8
2019-02-20T21:28:13.355Z,10.2
2019-02-20T21:33:09.962Z,9.7
2019-02-20T21:38:07.297Z,10.2
2019-02-20T21:43:04.156Z,9.8
2019-02-20T21:48:00.790Z,9.8
2019-02-20T21:52:57.613Z,9.7
2019-02-20T21:57:54.642Z,10.2
2019-02-20T22:02:51.669Z,10.2
2019-02-20T22:07:48.677Z,9.8
2019-02-20T22:12:50.782Z,9.8
2019-02-20T22:17:42.658Z,9.7
2019-02-20T22:22:39.530Z,9.7
2019-02-20T22:27:36.524Z,10.1
2019-02-20T22:32:33.267Z,9.7
2019-02-20T22:37:30.149Z,9.6
2019-02-20T22:42:26.840Z,9.7
2019-02-20T22:47:23.789Z,9.8
2019-02-20T22:52:20.418Z,9.7
2019-02-20T22:57:17.211Z,9.7
2019-02-20T23:02:13.985Z,9.7
2019-02-20T23:07:11.095Z,9.7
2019-02-20T23:12:08.172Z,9.7
2019-02-20T23:17:05.104Z,9.6
2019-02-20T23:22:02.100Z,9.6
2019-02-20T23:26:59.267Z,9.6
2019-02-20T23:31:55.870Z,9.6
2019-02-20T23:36:53.024Z,9.6
2019-02-20T23:41:49.852Z,9.6
2019-02-20T23:46:46.724Z,9.7
2019-02-20T23:51:43.530Z,9.9
2019-02-20T23:56:40.443Z,10.1
